Time;durP1;ratioP1;P1;durP2;ratioP2;P2;SDS_P1;SDS_P2;PMS_P1;PMS_P2;Temp;Humidity;BMP_temperature;BMP_pressure;BME280_temperature;BME280_humidity;BME280_pressure;Samples;Min_cycle;Max_cycle;Signal;HPM_P1;HPM_P2
2022/07/16 00:01:34;;;;;;;3.93;2.33;;;17.30;99.90;;;;;;4944374;29;20562;-78
2022/07/16 00:10:56;;;;;;;5.53;2.93;;;17.20;99.90;;;;;;4978091;28;20460;-78
2022/07/16 00:16:40;;;;;;;5.43;2.53;;;17.10;99.90;;;;;;4848111;28;20543;-78
2022/07/16 00:19:20;;;;;;;3.80;2.23;;;17.00;99.90;;;;;;5042847;28;20452;-79
2022/07/16 00:27:58;;;;;;;5.20;2.07;;;17.00;99.90;;;;;;5010950;28;20963;-78
2022/07/16 00:30:33;;;;;;;5.30;2.60;;;17.00;99.90;;;;;;5042474;28;20467;-80
2022/07/16 00:36:21;;;;;;;3.60;2.10;;;17.00;99.90;;;;;;4944214;28;20450;-77
2022/07/16 00:39:04;;;;;;;4.30;2.60;;;17.10;99.90;;;;;;5041087;28;20470;-81
2022/07/16 00:41:33;;;;;;;4.70;2.27;;;17.10;99.90;;;;;;5042384;28;20433;-78
2022/07/16 00:47:50;;;;;;;6.10;2.20;;;17.30;99.90;;;;;;4975999;28;20463;-77
2022/07/16 00:50:26;;;;;;;3.37;2.27;;;17.30;99.90;;;;;;4980904;28;20460;-78
2022/07/16 00:56:29;;;;;;;5.03;2.63;;;17.30;99.90;;;;;;4941021;29;20452;-77
2022/07/16 00:59:12;;;;;;;7.30;2.33;;;17.40;99.90;;;;;;4990186;28;20448;-78
2022/07/16 01:04:10;;;;;;;4.60;2.27;;;17.50;99.90;;;;;;5079160;22;20531;-82
2022/07/16 01:06:37;;;;;;;7.37;2.57;;;17.50;99.90;;;;;;5036987;28;20492;-82
2022/07/16 01:09:04;;;;;;;3.77;2.00;;;17.50;99.90;;;;;;5038039;28;20493;-80
2022/07/16 01:11:32;;;;;;;7.57;2.40;;;17.50;99.90;;;;;;5038243;28;20943;-83
2022/07/16 01:14:01;;;;;;;5.03;2.30;;;17.50;99.90;;;;;;5036892;28;20469;-81
2022/07/16 01:16:28;;;;;;;5.13;2.50;;;17.50;99.90;;;;;;5031281;28;20533;-82
2022/07/16 01:18:55;;;;;;;3.77;2.20;;;17.50;99.90;;;;;;5034343;28;21215;-81
2022/07/16 01:21:22;;;;;;;4.33;2.53;;;17.50;99.90;;;;;;5038595;28;20454;-81
2022/07/16 01:23:50;;;;;;;4.00;2.50;;;17.50;99.90;;;;;;5037525;28;20565;-82
2022/07/16 01:26:17;;;;;;;4.03;2.07;;;17.50;99.90;;;;;;5046690;28;20515;-81
2022/07/16 01:28:44;;;;;;;5.37;1.93;;;17.50;99.90;;;;;;5050712;28;20495;-81
2022/07/16 01:31:11;;;;;;;5.50;2.30;;;17.50;99.90;;;;;;5037445;28;20543;-81
2022/07/16 01:33:40;;;;;;;4.07;1.93;;;17.50;99.90;;;;;;5036328;28;20459;-81
2022/07/16 01:36:10;;;;;;;9.40;2.00;;;17.50;99.90;;;;;;5037534;28;20546;-81
2022/07/16 01:38:38;;;;;;;3.93;2.10;;;17.40;99.90;;;;;;5037587;28;20528;-82
2022/07/16 01:41:07;;;;;;;3.37;2.03;;;17.40;99.90;;;;;;5037499;28;20538;-81
2022/07/16 01:43:34;;;;;;;4.03;2.20;;;17.40;99.90;;;;;;5036583;28;20470;-81
2022/07/16 01:46:01;;;;;;;5.13;2.40;;;17.40;99.90;;;;;;5037217;28;20576;-81
2022/07/16 01:48:29;;;;;;;4.50;2.30;;;17.30;99.90;;;;;;5037292;28;20993;-82
2022/07/16 01:50:57;;;;;;;3.60;2.00;;;17.30;99.90;;;;;;5037879;28;20463;-81
2022/07/16 01:53:25;;;;;;;5.73;2.63;;;17.20;99.90;;;;;;5037666;28;20555;-81
2022/07/16 01:55:52;;;;;;;4.37;2.27;;;17.20;99.90;;;;;;5037996;28;21046;-81
2022/07/16 01:58:20;;;;;;;4.20;2.13;;;17.20;99.90;;;;;;5039279;28;20552;-81
2022/07/16 02:00:48;;;;;;;4.53;2.37;;;17.20;99.90;;;;;;5038418;28;20539;-81
2022/07/16 02:03:15;;;;;;;6.30;2.43;;;17.20;99.90;;;;;;5040572;28;20508;-78
2022/07/16 02:05:43;;;;;;;3.47;1.90;;;17.20;99.90;;;;;;5037862;28;20519;-80
2022/07/16 02:08:10;;;;;;;3.73;2.40;;;17.20;99.90;;;;;;5035389;28;20549;-80
2022/07/16 02:10:37;;;;;;;3.50;2.10;;;17.20;99.90;;;;;;5034663;28;20442;-80
2022/07/16 02:13:05;;;;;;;6.93;2.50;;;17.20;99.90;;;;;;5034278;28;20902;-80
2022/07/16 02:15:33;;;;;;;3.20;2.03;;;17.20;99.90;;;;;;5035217;28;20456;-81
2022/07/16 02:18:00;;;;;;;4.57;1.90;;;17.30;99.90;;;;;;5035287;28;20542;-81
2022/07/16 02:20:28;;;;;;;6.07;2.20;;;17.30;99.90;;;;;;5034721;28;20484;-81
2022/07/16 02:22:56;;;;;;;4.27;2.53;;;17.30;99.90;;;;;;5033969;28;20511;-80
2022/07/16 02:25:23;;;;;;;6.00;2.00;;;17.30;99.90;;;;;;5033269;28;20475;-80
2022/07/16 02:28:08;;;;;;;5.67;2.27;;;17.30;99.90;;;;;;5034753;28;20495;-80
2022/07/16 02:30:39;;;;;;;3.40;1.90;;;17.40;99.90;;;;;;5034891;28;20542;-80
2022/07/16 02:33:06;;;;;;;5.03;2.00;;;17.40;99.90;;;;;;5033861;28;20554;-80
2022/07/16 02:35:33;;;;;;;4.50;2.27;;;17.40;99.90;;;;;;5034702;28;20452;-81
2022/07/16 02:38:00;;;;;;;4.77;2.20;;;17.40;99.90;;;;;;5034998;28;21041;-81
2022/07/16 02:40:28;;;;;;;2.70;1.80;;;17.40;99.90;;;;;;5036642;28;20456;-81
2022/07/16 02:42:55;;;;;;;7.53;2.27;;;17.40;99.90;;;;;;5035677;28;20487;-81
2022/07/16 02:45:21;;;;;;;4.70;2.47;;;17.50;99.90;;;;;;5036696;28;20513;-80
2022/07/16 02:47:50;;;;;;;5.30;1.93;;;17.50;99.90;;;;;;5036222;28;20584;-81
2022/07/16 02:50:16;;;;;;;3.67;2.13;;;17.50;99.90;;;;;;5036770;28;20532;-81
2022/07/16 02:52:43;;;;;;;5.53;1.97;;;17.60;99.90;;;;;;5036184;28;20557;-81
2022/07/16 02:55:10;;;;;;;4.10;2.10;;;17.60;99.90;;;;;;5035309;28;20910;-81
2022/07/16 02:57:37;;;;;;;4.77;2.10;;;17.60;99.90;;;;;;5036647;28;20534;-81
2022/07/16 03:00:05;;;;;;;4.07;1.90;;;17.60;99.90;;;;;;5037205;28;20485;-82
2022/07/16 03:02:32;;;;;;;4.93;2.73;;;17.60;99.90;;;;;;5036694;28;20456;-81
2022/07/16 03:05:01;;;;;;;5.60;2.00;;;17.60;99.90;;;;;;5036066;28;20456;-81
2022/07/16 03:07:28;;;;;;;4.73;2.30;;;17.60;99.90;;;;;;5036003;28;20491;-81
2022/07/16 03:09:55;;;;;;;4.93;1.80;;;17.60;99.90;;;;;;5037122;28;20953;-81
2022/07/16 03:12:22;;;;;;;3.43;2.30;;;17.60;99.90;;;;;;5036320;28;20454;-81
2022/07/16 03:14:49;;;;;;;4.40;2.30;;;17.60;99.90;;;;;;5035967;28;20527;-81
2022/07/16 03:17:16;;;;;;;5.53;2.60;;;17.70;99.90;;;;;;5036369;28;20443;-81
2022/07/16 03:19:42;;;;;;;3.60;1.87;;;17.70;99.90;;;;;;5035815;28;20465;-82
2022/07/16 03:22:11;;;;;;;7.00;2.30;;;17.70;99.90;;;;;;5039422;28;20452;-82
2022/07/16 03:24:38;;;;;;;7.80;2.50;;;17.70;99.90;;;;;;5039645;28;20893;-82
2022/07/16 03:27:04;;;;;;;3.77;1.70;;;17.70;99.90;;;;;;5039452;28;21018;-81
2022/07/16 03:29:31;;;;;;;5.07;2.43;;;17.70;99.90;;;;;;5041918;28;20813;-79
2022/07/16 03:31:58;;;;;;;5.37;2.30;;;17.70;99.90;;;;;;5053868;28;20452;-80
2022/07/16 03:34:25;;;;;;;3.73;1.73;;;17.70;99.90;;;;;;5039592;28;20552;-81
2022/07/16 03:36:52;;;;;;;3.07;1.53;;;17.70;99.90;;;;;;5040276;28;20527;-81
2022/07/16 03:39:20;;;;;;;4.40;2.30;;;17.80;99.90;;;;;;5040433;28;20482;-81
2022/07/16 03:41:47;;;;;;;5.13;2.17;;;17.80;99.90;;;;;;5039850;28;20449;-81
2022/07/16 03:44:14;;;;;;;5.33;2.30;;;17.80;99.90;;;;;;5040931;28;20527;-80
2022/07/16 03:46:41;;;;;;;4.30;2.30;;;17.80;99.90;;;;;;5045948;28;20486;-80
2022/07/16 03:49:08;;;;;;;4.20;1.93;;;17.80;99.90;;;;;;5038797;28;20519;-80
2022/07/16 03:51:35;;;;;;;3.57;1.80;;;17.80;99.90;;;;;;5038667;28;20571;-82
2022/07/16 03:54:02;;;;;;;5.57;2.27;;;17.90;99.90;;;;;;5038603;28;20515;-81
2022/07/16 03:56:31;;;;;;;3.83;1.90;;;17.80;99.90;;;;;;5038945;28;20446;-81
2022/07/16 03:58:58;;;;;;;2.80;1.87;;;17.80;99.90;;;;;;5038996;28;20470;-81
2022/07/16 04:01:25;;;;;;;5.83;1.77;;;17.80;99.90;;;;;;5038561;28;20533;-81
2022/07/16 04:03:52;;;;;;;5.70;1.87;;;17.80;99.90;;;;;;5037386;28;20571;-81
2022/07/16 04:06:19;;;;;;;3.73;1.80;;;17.80;99.90;;;;;;5038626;28;21012;-81
2022/07/16 04:08:46;;;;;;;5.63;2.60;;;17.80;99.90;;;;;;5038979;28;20484;-81
2022/07/16 04:11:13;;;;;;;5.87;2.23;;;17.80;99.90;;;;;;5038685;28;20453;-81
2022/07/16 04:13:42;;;;;;;3.40;1.70;;;17.80;99.90;;;;;;5037858;28;20576;-82
2022/07/16 04:16:09;;;;;;;5.53;3.20;;;17.90;99.90;;;;;;5038430;28;20457;-82
2022/07/16 04:18:37;;;;;;;5.73;2.40;;;17.80;99.90;;;;;;5038943;28;20999;-80
2022/07/16 04:21:04;;;;;;;9.57;1.93;;;17.90;99.90;;;;;;5038927;28;20958;-80
2022/07/16 04:23:31;;;;;;;4.83;2.00;;;17.90;99.90;;;;;;5037774;28;20484;-81
2022/07/16 04:25:58;;;;;;;4.63;1.93;;;17.90;99.90;;;;;;5037131;28;20541;-81
2022/07/16 04:28:25;;;;;;;5.40;2.17;;;17.90;99.90;;;;;;5037976;28;20515;-82
2022/07/16 04:30:53;;;;;;;5.47;2.20;;;17.90;99.90;;;;;;5037968;28;20908;-81
2022/07/16 04:33:20;;;;;;;6.83;1.70;;;17.90;99.90;;;;;;5036309;28;20471;-81
2022/07/16 04:35:48;;;;;;;4.93;2.03;;;18.00;99.90;;;;;;5038668;28;20476;-82
2022/07/16 04:38:15;;;;;;;3.23;1.80;;;18.00;99.90;;;;;;5038728;28;20455;-81
2022/07/16 04:40:42;;;;;;;3.50;1.90;;;18.00;99.90;;;;;;5038404;28;20533;-81
2022/07/16 04:43:09;;;;;;;2.77;1.60;;;18.00;99.90;;;;;;5037964;28;20479;-81
2022/07/16 04:45:35;;;;;;;6.67;2.83;;;18.00;99.90;;;;;;5037881;28;20488;-81
2022/07/16 04:48:05;;;;;;;3.60;1.80;;;18.10;99.90;;;;;;5038961;28;20488;-81
2022/07/16 04:50:32;;;;;;;5.20;1.97;;;18.10;99.90;;;;;;5037701;28;20512;-81
2022/07/16 04:52:59;;;;;;;7.20;1.90;;;18.10;99.90;;;;;;5037374;28;20557;-81
2022/07/16 04:55:26;;;;;;;4.20;1.97;;;18.10;99.90;;;;;;5037593;28;20516;-81
2022/07/16 04:57:53;;;;;;;4.53;2.07;;;18.20;99.90;;;;;;5038401;28;20538;-80
2022/07/16 05:00:20;;;;;;;5.43;2.00;;;18.30;99.90;;;;;;5037854;28;20554;-81
2022/07/16 05:02:59;;;;;;;4.20;1.90;;;18.30;99.90;;;;;;5037614;28;20566;-81
2022/07/16 05:05:30;;;;;;;4.30;1.70;;;18.40;99.90;;;;;;5038171;28;20526;-80
2022/07/16 05:07:57;;;;;;;3.40;1.63;;;18.40;99.90;;;;;;5038089;28;20590;-81
2022/07/16 05:10:24;;;;;;;3.37;1.70;;;18.40;99.90;;;;;;5038520;28;21052;-82
2022/07/16 05:12:51;;;;;;;5.17;2.13;;;18.50;99.90;;;;;;5037134;28;20479;-80
2022/07/16 05:15:18;;;;;;;3.30;1.80;;;18.50;99.90;;;;;;5037987;28;20509;-80
2022/07/16 05:17:45;;;;;;;5.97;2.20;;;18.50;99.90;;;;;;5038508;28;20483;-81
2022/07/16 05:20:13;;;;;;;4.00;1.90;;;18.50;99.90;;;;;;5037630;28;20539;-81
2022/07/16 05:22:41;;;;;;;3.63;1.90;;;18.60;99.90;;;;;;5037575;28;20517;-81
2022/07/16 05:25:09;;;;;;;5.00;2.50;;;18.60;99.90;;;;;;5037259;28;20458;-82
2022/07/16 05:27:36;;;;;;;4.30;1.93;;;18.60;99.90;;;;;;5036330;28;20484;-82
2022/07/16 05:30:04;;;;;;;3.30;2.00;;;18.70;99.90;;;;;;5039026;28;20451;-82
2022/07/16 05:32:31;;;;;;;2.97;1.97;;;18.60;99.90;;;;;;5039587;28;20545;-82
2022/07/16 05:34:58;;;;;;;5.00;2.13;;;18.70;99.90;;;;;;5050851;28;20479;-80
2022/07/16 05:37:25;;;;;;;5.97;2.60;;;18.80;99.90;;;;;;5045108;28;20480;-81
2022/07/16 05:39:53;;;;;;;7.43;2.73;;;18.80;99.90;;;;;;5037225;28;20981;-81
2022/07/16 05:42:20;;;;;;;4.10;2.50;;;18.80;99.90;;;;;;5038447;28;20545;-81
2022/07/16 05:44:47;;;;;;;4.27;2.53;;;18.80;99.90;;;;;;5036341;28;20457;-79
2022/07/16 05:47:14;;;;;;;6.13;2.43;;;18.90;99.90;;;;;;5036575;28;20518;-81
2022/07/16 05:49:41;;;;;;;6.30;2.60;;;18.90;99.90;;;;;;5034172;28;21384;-82
2022/07/16 05:52:08;;;;;;;5.90;3.60;;;18.90;99.90;;;;;;5036486;28;20512;-82
2022/07/16 05:54:35;;;;;;;3.50;2.33;;;18.80;99.90;;;;;;5035191;28;20906;-80
2022/07/16 05:57:03;;;;;;;6.00;3.10;;;18.80;99.90;;;;;;5036597;28;20524;-82
2022/07/16 05:59:30;;;;;;;5.43;2.57;;;18.80;99.90;;;;;;5035842;28;20503;-81
2022/07/16 06:01:56;;;;;;;5.20;3.47;;;18.90;99.90;;;;;;5035651;28;20552;-82
2022/07/16 06:04:23;;;;;;;5.23;3.70;;;19.00;99.90;;;;;;5034576;28;20511;-81
2022/07/16 06:06:52;;;;;;;6.67;3.57;;;19.00;99.90;;;;;;5033220;28;20930;-82
2022/07/16 06:09:19;;;;;;;5.67;3.10;;;19.10;99.90;;;;;;5031338;28;20491;-82
2022/07/16 06:11:46;;;;;;;5.80;4.23;;;19.10;99.90;;;;;;5035324;28;20805;-82
2022/07/16 06:14:15;;;;;;;7.30;3.90;;;19.10;99.90;;;;;;5033633;28;20495;-82
2022/07/16 06:16:42;;;;;;;9.10;4.03;;;19.10;99.90;;;;;;5033764;28;20482;-81
2022/07/16 06:19:10;;;;;;;5.30;3.17;;;19.10;99.90;;;;;;5033467;28;20443;-82
2022/07/16 06:21:37;;;;;;;7.43;4.10;;;19.10;99.90;;;;;;5035539;28;20456;-82
2022/07/16 06:24:04;;;;;;;6.83;3.50;;;19.20;99.90;;;;;;5034797;28;20476;-82
2022/07/16 06:26:31;;;;;;;5.30;2.93;;;19.20;99.90;;;;;;5035395;28;20913;-81
2022/07/16 06:28:58;;;;;;;5.40;3.27;;;19.30;99.90;;;;;;5040477;28;21012;-82
2022/07/16 06:31:26;;;;;;;5.27;2.80;;;19.30;99.90;;;;;;5042451;28;20646;-83
2022/07/16 06:33:53;;;;;;;4.63;2.97;;;19.30;99.90;;;;;;5029474;28;20544;-81
2022/07/16 06:36:20;;;;;;;5.03;3.03;;;19.40;99.90;;;;;;5033499;28;20540;-83
2022/07/16 06:38:47;;;;;;;4.23;2.63;;;19.50;99.90;;;;;;5034973;28;20499;-82
2022/07/16 06:41:16;;;;;;;4.33;3.07;;;19.40;99.90;;;;;;5035587;28;20469;-81
2022/07/16 06:43:43;;;;;;;6.50;2.80;;;19.30;99.90;;;;;;5034232;28;20563;-82
2022/07/16 06:46:10;;;;;;;4.83;2.77;;;19.30;99.90;;;;;;5035383;28;20448;-81
2022/07/16 06:48:38;;;;;;;4.33;2.33;;;19.40;99.90;;;;;;5035958;28;20582;-83
2022/07/16 06:51:05;;;;;;;4.83;2.20;;;19.50;99.90;;;;;;5033388;28;20449;-82
2022/07/16 06:53:32;;;;;;;3.93;1.93;;;19.70;99.90;;;;;;5029473;28;20604;-82
2022/07/16 06:56:00;;;;;;;4.47;2.30;;;19.80;99.90;;;;;;5029464;28;20441;-82
2022/07/16 06:58:27;;;;;;;4.50;2.27;;;19.90;99.90;;;;;;5035909;28;20449;-82
2022/07/16 07:00:54;;;;;;;4.30;2.23;;;19.70;99.90;;;;;;5035815;28;20887;-83
2022/07/16 07:03:21;;;;;;;4.23;1.83;;;19.70;99.90;;;;;;5033860;28;20515;-82
2022/07/16 07:05:49;;;;;;;3.10;1.67;;;19.60;99.90;;;;;;5035519;28;20483;-81
2022/07/16 07:08:16;;;;;;;3.37;1.50;;;19.40;99.90;;;;;;5035662;28;20520;-82
2022/07/16 07:10:43;;;;;;;4.00;1.60;;;19.40;99.90;;;;;;5035620;28;20542;-83
2022/07/16 07:13:10;;;;;;;4.23;1.73;;;19.30;99.90;;;;;;5034383;28;21084;-81
2022/07/16 07:15:37;;;;;;;4.87;1.57;;;19.30;99.90;;;;;;5035588;28;20544;-82
2022/07/16 07:18:04;;;;;;;3.13;1.50;;;19.40;99.90;;;;;;5035599;28;20445;-81
2022/07/16 07:20:31;;;;;;;4.50;1.60;;;19.50;99.90;;;;;;5035770;28;20491;-83
2022/07/16 07:23:00;;;;;;;4.97;1.90;;;19.60;99.90;;;;;;5034776;28;20494;-82
2022/07/16 07:25:27;;;;;;;4.23;1.73;;;19.70;99.90;;;;;;5035987;28;20516;-81
2022/07/16 07:27:53;;;;;;;4.27;1.40;;;19.80;99.90;;;;;;5036238;28;20646;-82
2022/07/16 07:32:49;;;;;;;3.47;1.30;;;19.80;99.90;;;;;;5003804;28;20478;-79
2022/07/16 07:35:16;;;;;;;6.23;1.40;;;20.00;99.90;;;;;;5010057;28;20467;-81
2022/07/16 07:37:43;;;;;;;2.30;1.00;;;20.00;99.90;;;;;;5009943;28;20481;-81
2022/07/16 07:40:12;;;;;;;3.50;1.03;;;20.20;99.90;;;;;;5003164;28;20448;-80
2022/07/16 07:42:39;;;;;;;3.90;1.10;;;20.20;99.90;;;;;;5023085;28;20515;-78
2022/07/16 07:45:07;;;;;;;2.33;1.00;;;20.40;99.90;;;;;;5026222;28;20446;-81
2022/07/16 07:47:34;;;;;;;3.07;1.10;;;20.50;99.90;;;;;;5026034;28;20470;-80
2022/07/16 07:50:03;;;;;;;3.73;1.10;;;20.50;99.90;;;;;;5026660;28;20521;-78
2022/07/16 07:52:30;;;;;;;2.40;1.00;;;20.60;99.90;;;;;;5015892;28;20474;-80
2022/07/16 07:54:57;;;;;;;4.00;1.17;;;20.70;99.90;;;;;;5005882;28;20469;-80
2022/07/16 07:57:25;;;;;;;2.27;1.03;;;20.70;99.90;;;;;;5006416;28;20460;-81
2022/07/16 07:59:52;;;;;;;3.43;1.10;;;20.90;99.90;;;;;;5007294;28;20459;-81
2022/07/16 08:02:19;;;;;;;2.93;1.20;;;21.10;99.90;;;;;;5006054;28;20490;-80
2022/07/16 08:04:46;;;;;;;2.40;1.10;;;21.30;99.90;;;;;;5007467;28;20481;-82
2022/07/16 08:07:13;;;;;;;3.00;1.07;;;21.60;99.90;;;;;;5011288;28;20446;-80
2022/07/16 08:09:40;;;;;;;2.97;1.10;;;21.70;99.90;;;;;;5010523;28;20940;-80
2022/07/16 08:12:07;;;;;;;3.90;1.20;;;21.70;99.90;;;;;;5010416;28;20533;-81
2022/07/16 08:14:35;;;;;;;3.17;1.20;;;21.50;99.90;;;;;;5007890;28;20974;-78
2022/07/16 08:17:02;;;;;;;8.87;1.20;;;21.60;99.90;;;;;;5009122;28;20465;-81
2022/07/16 08:19:30;;;;;;;2.50;1.20;;;21.50;99.90;;;;;;5008926;28;20474;-79
2022/07/16 08:21:57;;;;;;;2.87;1.10;;;21.50;99.90;;;;;;5006651;28;20489;-81
2022/07/16 08:27:08;;;;;;;2.60;1.30;;;21.30;99.90;;;;;;5005683;28;20425;-80
2022/07/16 08:29:37;;;;;;;2.40;0.80;;;21.20;99.90;;;;;;5006945;28;20498;-79
2022/07/16 08:32:04;;;;;;;3.70;1.10;;;21.20;99.90;;;;;;5007059;28;21013;-80
2022/07/16 08:34:31;;;;;;;4.67;1.10;;;21.30;99.90;;;;;;5005906;28;20478;-80
2022/07/16 08:36:58;;;;;;;2.67;1.00;;;21.50;99.90;;;;;;5005455;28;20985;-80
2022/07/16 08:39:24;;;;;;;2.27;1.00;;;21.90;99.90;;;;;;5006374;28;20914;-80
2022/07/16 08:41:54;;;;;;;3.80;1.50;;;22.20;99.90;;;;;;5005981;28;20513;-80
2022/07/16 08:44:21;;;;;;;3.73;1.20;;;22.20;99.90;;;;;;4996129;28;20459;-81
2022/07/16 08:46:50;;;;;;;3.07;1.20;;;22.00;99.90;;;;;;5010659;28;20489;-78
2022/07/16 08:49:19;;;;;;;3.47;1.00;;;22.10;99.90;;;;;;5003662;28;20514;-79
2022/07/16 08:51:47;;;;;;;3.37;1.40;;;22.20;99.90;;;;;;5007711;28;20480;-80
2022/07/16 08:54:18;;;;;;;2.97;1.00;;;22.20;99.90;;;;;;5003823;28;20458;-79
2022/07/16 08:56:46;;;;;;;5.60;1.67;;;22.50;99.90;;;;;;5003708;28;20458;-78
2022/07/16 08:59:14;;;;;;;4.33;1.10;;;23.00;99.90;;;;;;5003266;28;20488;-78
2022/07/16 09:01:42;;;;;;;3.03;1.10;;;22.90;99.90;;;;;;5017979;28;20801;-78
2022/07/16 09:04:17;;;;;;;4.33;1.40;;;23.30;99.90;;;;;;5006915;28;20486;-78
2022/07/16 09:06:44;;;;;;;3.60;1.30;;;23.40;99.90;;;;;;5000428;28;20831;-80
2022/07/16 09:09:11;;;;;;;2.80;1.10;;;23.30;99.90;;;;;;4999785;28;20952;-78
2022/07/16 09:11:38;;;;;;;2.60;1.10;;;22.90;99.90;;;;;;4999573;28;20470;-78
2022/07/16 09:14:07;;;;;;;3.40;1.10;;;22.60;99.90;;;;;;4998348;28;20455;-78
2022/07/16 09:16:37;;;;;;;3.97;1.13;;;22.70;99.90;;;;;;5002814;28;20522;-80
2022/07/16 09:19:06;;;;;;;3.63;1.00;;;22.60;99.90;;;;;;4999661;28;20461;-82
2022/07/16 09:21:35;;;;;;;2.30;1.13;;;23.00;99.90;;;;;;5002050;28;21004;-80
2022/07/16 09:24:03;;;;;;;4.40;1.23;;;23.30;99.90;;;;;;5001389;28;20534;-82
2022/07/16 09:26:30;;;;;;;2.90;0.97;;;23.60;99.90;;;;;;5000317;28;20457;-80
2022/07/16 09:29:03;;;;;;;2.60;1.10;;;23.60;99.90;;;;;;5020632;28;20489;-80
2022/07/16 09:31:39;;;;;;;2.67;1.10;;;23.50;99.90;;;;;;4999060;28;20569;-82
2022/07/16 09:34:10;;;;;;;4.07;1.03;;;23.70;99.90;;;;;;4997530;28;20485;-81
2022/07/16 09:36:39;;;;;;;5.47;1.33;;;24.20;99.90;;;;;;5008127;28;20486;-82
2022/07/16 09:39:08;;;;;;;2.50;1.20;;;24.20;99.90;;;;;;5014675;28;20451;-82
2022/07/16 09:41:43;;;;;;;4.27;1.33;;;23.70;99.90;;;;;;5001466;28;20555;-81
2022/07/16 09:44:15;;;;;;;2.40;0.90;;;23.70;99.90;;;;;;5000980;28;20545;-81
2022/07/16 09:47:04;;;;;;;2.87;1.00;;;23.80;99.90;;;;;;5000950;28;20830;-81
2022/07/16 09:49:33;;;;;;;2.60;1.20;;;23.80;99.90;;;;;;4999961;28;20991;-81
2022/07/16 09:52:01;;;;;;;4.47;1.30;;;23.70;99.90;;;;;;5010091;28;20560;-81
2022/07/16 09:54:30;;;;;;;3.70;1.10;;;23.50;99.90;;;;;;5000561;28;20993;-81
2022/07/16 09:57:08;;;;;;;4.07;1.37;;;23.30;99.90;;;;;;4999061;28;20497;-80
2022/07/16 09:59:35;;;;;;;3.93;1.27;;;23.00;99.90;;;;;;5009602;28;20438;-80
2022/07/16 10:02:04;;;;;;;3.03;1.20;;;23.00;99.90;;;;;;5009584;28;20517;-81
2022/07/16 10:04:31;;;;;;;4.30;1.30;;;23.20;99.90;;;;;;5010711;28;20454;-80
2022/07/16 10:06:58;;;;;;;2.50;1.20;;;23.50;99.90;;;;;;5005574;28;20473;-78
2022/07/16 10:09:27;;;;;;;2.97;1.20;;;23.80;99.90;;;;;;5008828;28;20482;-78
2022/07/16 10:11:56;;;;;;;3.30;1.20;;;24.40;99.90;;;;;;5018647;28;20470;-78
2022/07/16 10:14:23;;;;;;;3.53;1.53;;;24.80;99.90;;;;;;5010673;28;20483;-79
2022/07/16 10:16:50;;;;;;;3.87;1.10;;;25.40;99.90;;;;;;5019871;28;20537;-79
2022/07/16 10:19:17;;;;;;;6.60;1.00;;;25.30;99.90;;;;;;5019911;28;20449;-78
2022/07/16 10:22:16;;;;;;;4.00;1.20;;;24.90;99.90;;;;;;5017688;28;20466;-79
2022/07/16 10:24:47;;;;;;;4.57;1.00;;;24.50;99.90;;;;;;4994626;28;20473;-79
2022/07/16 10:27:18;;;;;;;3.57;1.20;;;23.90;99.90;;;;;;5001745;28;20485;-79
2022/07/16 10:29:45;;;;;;;4.10;1.20;;;24.20;99.90;;;;;;5010475;28;20513;-80
2022/07/16 10:34:56;;;;;;;2.47;1.00;;;25.10;99.90;;;;;;5008163;28;20461;-80
2022/07/16 10:37:27;;;;;;;3.43;1.20;;;25.10;99.90;;;;;;5009916;28;21156;-79
2022/07/16 10:40:06;;;;;;;2.67;1.00;;;24.80;99.90;;;;;;5009060;28;20446;-79
2022/07/16 10:42:33;;;;;;;2.60;1.20;;;24.90;99.90;;;;;;5015150;28;20861;-79
2022/07/16 10:45:00;;;;;;;3.57;1.40;;;25.60;99.90;;;;;;5002393;28;20450;-80
2022/07/16 10:47:48;;;;;;;4.17;1.30;;;26.20;99.90;;;;;;5008161;28;20478;-80
2022/07/16 10:50:20;;;;;;;3.00;1.27;;;26.60;99.90;;;;;;5013480;28;20481;-79
2022/07/16 10:52:48;;;;;;;3.30;1.27;;;25.90;99.90;;;;;;5003266;28;20486;-78
2022/07/16 10:55:35;;;;;;;3.00;1.10;;;25.50;99.90;;;;;;5003957;28;20446;-78
2022/07/16 10:58:03;;;;;;;4.37;1.10;;;25.50;99.90;;;;;;5005193;28;20454;-80
2022/07/16 11:00:30;;;;;;;3.37;1.00;;;25.90;99.90;;;;;;5003428;28;20466;-78
2022/07/16 11:02:59;;;;;;;3.83;1.00;;;26.40;99.90;;;;;;5010230;28;20461;-80
2022/07/16 11:05:28;;;;;;;2.67;1.20;;;26.80;99.90;;;;;;5003379;28;20457;-78
2022/07/16 11:07:55;;;;;;;3.40;1.30;;;26.60;99.90;;;;;;5013673;28;20894;-81
2022/07/16 11:10:25;;;;;;;2.73;0.90;;;26.10;99.90;;;;;;5003287;28;20859;-78
2022/07/16 11:12:53;;;;;;;3.40;1.13;;;26.40;99.90;;;;;;5002075;28;20513;-79
2022/07/16 11:15:20;;;;;;;3.90;1.23;;;26.80;99.90;;;;;;5006756;28;20923;-80
2022/07/16 11:17:56;;;;;;;4.90;1.20;;;27.00;99.90;;;;;;5005146;28;20463;-78
2022/07/16 11:20:34;;;;;;;3.17;1.20;;;27.40;99.90;;;;;;5007168;28;20469;-79
2022/07/16 11:23:08;;;;;;;2.80;0.97;;;27.90;99.90;;;;;;5012812;28;20525;-80
2022/07/16 11:25:36;;;;;;;3.30;1.37;;;28.00;99.90;;;;;;5022576;28;20448;-80
2022/07/16 11:28:03;;;;;;;3.93;1.10;;;27.60;99.90;;;;;;5022937;28;20453;-80
2022/07/16 11:30:31;;;;;;;3.70;1.10;;;26.80;99.90;;;;;;5025746;28;20585;-83
2022/07/16 11:32:58;;;;;;;3.40;1.20;;;26.30;99.90;;;;;;5023704;28;20476;-81
2022/07/16 11:35:25;;;;;;;3.50;1.10;;;26.30;99.90;;;;;;5026741;28;20452;-81
2022/07/16 11:37:55;;;;;;;5.23;1.40;;;27.00;99.90;;;;;;5002510;28;20458;-81
2022/07/16 11:40:33;;;;;;;4.40;1.10;;;27.10;99.90;;;;;;5014665;28;20541;-79
2022/07/16 11:43:01;;;;;;;3.37;1.30;;;26.50;99.90;;;;;;5018847;28;20458;-81
2022/07/16 11:45:28;;;;;;;4.40;1.10;;;26.40;99.90;;;;;;5018528;28;20856;-82
2022/07/16 11:48:12;;;;;;;2.67;1.00;;;27.20;99.90;;;;;;5008888;28;20458;-80
2022/07/16 11:50:39;;;;;;;3.20;1.00;;;27.90;99.90;;;;;;5018343;28;20864;-82
2022/07/16 11:53:06;;;;;;;3.70;1.17;;;27.90;99.90;;;;;;5029026;28;20446;-82
2022/07/16 11:55:33;;;;;;;3.00;0.90;;;27.30;99.90;;;;;;5022286;28;20936;-81
2022/07/16 11:58:05;;;;;;;2.80;1.10;;;27.30;99.90;;;;;;5010560;28;20451;-81
2022/07/16 12:00:43;;;;;;;2.77;1.00;;;28.10;99.90;;;;;;5006732;28;20442;-79
2022/07/16 12:03:11;;;;;;;3.93;1.20;;;28.50;99.90;;;;;;5014058;28;20978;-82
2022/07/16 12:05:38;;;;;;;4.83;1.20;;;28.90;99.90;;;;;;5022989;28;20456;-81
2022/07/16 12:08:05;;;;;;;5.13;1.10;;;29.30;99.90;;;;;;5014716;28;20871;-81
2022/07/16 12:10:32;;;;;;;3.33;1.50;;;29.30;99.90;;;;;;5022688;28;20839;-81
2022/07/16 12:13:05;;;;;;;3.10;1.10;;;29.10;98.00;;;;;;5028740;28;21268;-80
2022/07/16 12:15:51;;;;;;;2.73;1.00;;;29.40;99.90;;;;;;5020983;28;20469;-80
2022/07/16 12:18:19;;;;;;;5.23;1.17;;;29.40;96.30;;;;;;5027301;28;20445;-80
2022/07/16 12:20:46;;;;;;;3.90;2.33;;;29.40;97.30;;;;;;5017372;28;20458;-79
2022/07/16 12:23:15;;;;;;;5.03;2.13;;;29.30;94.20;;;;;;5009656;28;20450;-80
2022/07/16 12:25:45;;;;;;;4.70;1.30;;;29.50;95.30;;;;;;5007715;28;20482;-82
2022/07/16 12:28:24;;;;;;;3.90;1.30;;;29.40;95.60;;;;;;5010433;28;20938;-80
2022/07/16 12:30:53;;;;;;;4.20;1.10;;;28.60;93.00;;;;;;5018449;28;20493;-81
2022/07/16 12:33:26;;;;;;;2.43;0.90;;;28.70;96.90;;;;;;5025206;28;20486;-82
2022/07/16 12:35:59;;;;;;;4.37;1.37;;;29.00;96.30;;;;;;5029984;28;20465;-81
2022/07/16 12:38:40;;;;;;;3.07;1.27;;;29.50;94.10;;;;;;5020928;28;20924;-81
2022/07/16 12:41:11;;;;;;;4.20;1.20;;;30.10;94.70;;;;;;5010198;28;20520;-82
2022/07/16 12:43:40;;;;;;;4.27;1.20;;;30.10;92.80;;;;;;5008026;28;20450;-81
2022/07/16 12:46:07;;;;;;;4.23;1.10;;;30.40;94.50;;;;;;5007357;28;20942;-82
2022/07/16 12:48:41;;;;;;;4.43;1.20;;;30.60;91.80;;;;;;5009206;28;20471;-83
2022/07/16 12:51:09;;;;;;;3.20;1.30;;;29.80;90.10;;;;;;5010079;28;20490;-82
2022/07/16 12:53:36;;;;;;;3.33;1.20;;;29.70;91.70;;;;;;5006533;28;20479;-80
2022/07/16 12:58:49;;;;;;;3.97;1.10;;;30.30;89.00;;;;;;5002013;28;20480;-81
2022/07/16 13:01:16;;;;;;;5.43;1.03;;;30.70;92.80;;;;;;5026340;28;20472;-83
2022/07/16 13:03:43;;;;;;;3.07;1.00;;;30.70;88.40;;;;;;5019911;28;20453;-81
2022/07/16 13:06:10;;;;;;;3.50;1.30;;;30.80;93.60;;;;;;5005203;28;20455;-78
2022/07/16 13:08:37;;;;;;;3.20;0.90;;;31.30;94.10;;;;;;5003891;28;20451;-83
2022/07/16 13:11:06;;;;;;;3.60;1.10;;;31.60;92.90;;;;;;5003816;28;20496;-81
2022/07/16 13:13:33;;;;;;;2.23;0.93;;;32.00;90.10;;;;;;5001386;28;20453;-80
2022/07/16 13:16:01;;;;;;;4.03;1.50;;;32.00;83.60;;;;;;4998311;28;20481;-79
2022/07/16 13:18:29;;;;;;;4.83;1.00;;;32.00;87.30;;;;;;5002135;28;20451;-81
2022/07/16 13:20:56;;;;;;;3.47;1.10;;;31.90;84.20;;;;;;4998342;28;20513;-82
2022/07/16 13:23:23;;;;;;;3.23;1.00;;;32.30;86.40;;;;;;4994608;28;20541;-79
2022/07/16 13:25:50;;;;;;;3.70;1.60;;;32.70;90.00;;;;;;5013207;28;21015;-81
2022/07/16 13:28:17;;;;;;;3.50;1.00;;;32.70;83.40;;;;;;5007337;28;20455;-80
2022/07/16 13:30:45;;;;;;;6.97;1.10;;;32.30;78.70;;;;;;5008889;28;20478;-81
2022/07/16 13:33:13;;;;;;;4.40;1.03;;;32.50;76.30;;;;;;5023135;28;20465;-82
2022/07/16 13:35:41;;;;;;;3.10;1.20;;;32.50;75.90;;;;;;5010554;28;20478;-82